Rio Grande, Texas
Current Conditions -  °F | °C
As of 12:15 AM on Saturday 01 Nov 2014 (Local Time) from KEBG Reporting Station
Clear Clear  
Wind Chill: 60°   Ceiling: Unl
Heat Index: 60°   Visibility: 10mi
Dew Point: 54°   Wind: 5mph
Humidity: 82%   Direction: 300°WNW
Pressure: 30.25"   Gusts: NA
Location:  26.5735°N, 98.695°W
Report Text: KEBG 010515Z AUTO 30004KT 10SM CLR 15/12 A3025 RMK AO2 T01530123
Loading
Personal Weather Stations






























Interactive Weather Map
Tropical Storm Tracking
New forecast layout! Learn more

10-Day Weather Forecast

Advertisements
Track Severe Weather on mobile